Terminal Aerodrome Forecast
Issued by NWS

Home | Current Version | Previous Version | Text Only | Print | Product List | Glossary On
Versions: 1 2 3 4 5 6 7 8 9 10 11 12
948
FTUS45 KABQ 231140
TAFGUP
TAF
KGUP 231140Z 2312/2412 23010G18KT P6SM FEW060
     FM231600 23018G28KT P6SM VCSH SCT035 BKN060
     FM232000 25020G30KT 5SM -SHRA BR SCT020 BKN045
     FM240200 24018G30KT P6SM VCSH SCT025 BKN040
     FM240700 24012G20KT P6SM FEW030=

USA.gov is the U.S. government's official web portal to all federal, state and local government web resources and services.